Time;durP1;ratioP1;P1;durP2;ratioP2;P2;SDS_P1;SDS_P2;PMS_P1;PMS_P2;Temp;Humidity;BMP_temperature;BMP_pressure;BME280_temperature;BME280_humidity;BME280_pressure;Samples;Min_cycle;Max_cycle;Signal;HPM_P1;HPM_P2
2021/10/20 03:49:37;;;;;;;6.65;4.20;;;;;;;11.70;70.20;100051.50;5023549;28;106139;-70
2021/10/20 03:52:03;;;;;;;7.10;4.20;;;;;;;11.70;71.26;100046.19;5026055;27;106348;-65
2021/10/20 03:54:28;;;;;;;5.90;4.18;;;;;;;11.72;70.90;100046.81;5006610;27;106272;-68
2021/10/20 03:56:53;;;;;;;6.97;4.40;;;;;;;11.73;71.91;100045.81;5005076;28;106076;-70
2021/10/20 03:59:19;;;;;;;7.00;4.90;;;;;;;11.77;71.90;100046.25;5004985;28;106347;-72
2021/10/20 04:01:44;;;;;;;6.28;4.72;;;;;;;11.80;72.32;100049.41;5005703;28;105809;-69
2021/10/20 04:04:09;;;;;;;7.13;5.35;;;;;;;11.85;72.36;100055.03;5004858;28;114999;-72
2021/10/20 04:06:35;;;;;;;6.22;5.00;;;;;;;11.88;72.02;100053.00;5004713;28;117712;-68
2021/10/20 04:09:00;;;;;;;6.18;4.65;;;;;;;11.91;72.30;100047.31;5005102;28;106001;-62
2021/10/20 04:11:25;;;;;;;7.57;5.28;;;;;;;11.95;72.95;100045.97;5005988;28;106329;-66
2021/10/20 04:13:51;;;;;;;6.50;4.95;;;;;;;11.96;73.01;100040.44;5004754;28;106263;-70
2021/10/20 04:16:16;;;;;;;7.85;5.45;;;;;;;11.98;72.69;100042.91;5004889;28;105995;-69
2021/10/20 04:18:41;;;;;;;10.52;5.68;;;;;;;11.98;72.96;100037.59;5004192;28;106035;-69
2021/10/20 04:21:07;;;;;;;7.57;5.30;;;;;;;11.99;73.00;100044.59;5005206;28;106148;-69
2021/10/20 04:23:32;;;;;;;6.95;5.25;;;;;;;12.00;72.71;100038.22;5005112;28;106271;-68
2021/10/20 04:25:57;;;;;;;9.48;5.60;;;;;;;12.00;73.17;100041.72;5004513;28;106527;-65
2021/10/20 04:28:22;;;;;;;9.50;5.53;;;;;;;12.00;73.24;100038.22;5004206;28;109573;-64
2021/10/20 04:30:48;;;;;;;7.30;5.55;;;;;;;11.99;72.86;100036.56;5005175;28;105766;-67
2021/10/20 04:33:13;;;;;;;7.25;5.20;;;;;;;12.01;73.63;100039.88;5004737;28;106134;-65
2021/10/20 04:35:38;;;;;;;8.52;5.95;;;;;;;12.02;73.92;100034.34;5004610;28;105777;-64
2021/10/20 04:38:04;;;;;;;9.30;5.80;;;;;;;12.02;73.35;100025.53;5004415;28;106046;-66
2021/10/20 04:40:29;;;;;;;8.80;6.43;;;;;;;12.00;73.45;100028.38;5005205;28;105767;-65
2021/10/20 04:42:55;;;;;;;10.27;5.72;;;;;;;11.99;73.62;100031.25;5004873;28;106098;-66
2021/10/20 04:45:20;;;;;;;9.20;6.30;;;;;;;11.97;73.98;100017.22;5004159;28;105874;-65
2021/10/20 04:47:45;;;;;;;8.32;5.72;;;;;;;11.95;74.07;100013.94;5003398;28;113354;-64
2021/10/20 04:50:11;;;;;;;9.30;6.70;;;;;;;11.91;73.37;100009.94;5002404;28;105961;-64
2021/10/20 04:52:37;;;;;;;8.10;5.60;;;;;;;11.88;73.69;100020.97;4975230;28;106692;-64
2021/10/20 04:55:07;;;;;;;7.05;5.82;;;;;;;11.85;74.27;100023.00;4945076;28;106703;-64
2021/10/20 04:57:33;;;;;;;7.57;5.90;;;;;;;11.83;73.93;100011.66;4945066;28;106118;-65
2021/10/20 04:59:58;;;;;;;8.05;6.28;;;;;;;11.80;74.26;100017.38;4938037;28;105891;-65
2021/10/20 05:02:23;;;;;;;7.72;5.85;;;;;;;11.79;74.13;100018.38;4931761;28;113584;-65
2021/10/20 05:04:49;;;;;;;9.68;6.07;;;;;;;11.78;74.80;100016.75;4931178;28;106077;-67
2021/10/20 05:07:14;;;;;;;9.88;6.53;;;;;;;11.76;74.33;100005.41;4932155;28;106099;-63
2021/10/20 05:09:41;;;;;;;8.25;6.70;;;;;;;11.76;74.73;100009.94;4932075;28;106057;-67
2021/10/20 05:12:06;;;;;;;9.13;6.53;;;;;;;11.74;75.00;100009.25;4931838;28;106309;-65
2021/10/20 05:14:31;;;;;;;7.60;6.35;;;;;;;11.72;74.68;100013.97;4931463;28;106114;-66
2021/10/20 05:16:57;;;;;;;7.90;6.05;;;;;;;11.71;74.72;100015.78;4931910;28;105829;-66
2021/10/20 05:19:22;;;;;;;10.32;7.10;;;;;;;11.69;75.13;99996.47;4932180;28;106099;-66
2021/10/20 05:21:47;;;;;;;9.90;6.20;;;;;;;11.67;74.74;100004.66;4931941;28;105909;-67
2021/10/20 05:24:13;;;;;;;10.60;6.75;;;;;;;11.66;74.96;99999.53;4931927;28;105749;-68
2021/10/20 05:26:38;;;;;;;9.70;7.07;;;;;;;11.64;74.74;99996.19;4931330;28;106373;-67
2021/10/20 05:29:04;;;;;;;8.73;6.60;;;;;;;11.64;75.10;99983.66;4932200;28;106052;-67
2021/10/20 05:31:29;;;;;;;10.25;6.80;;;;;;;11.64;74.97;99982.84;4931764;28;106153;-67
2021/10/20 05:33:55;;;;;;;10.63;7.13;;;;;;;11.63;75.66;99984.69;4931453;28;105972;-67
2021/10/20 05:36:20;;;;;;;10.68;6.95;;;;;;;11.62;75.50;99990.22;4931253;28;106384;-67
2021/10/20 05:38:47;;;;;;;11.23;6.70;;;;;;;11.62;75.53;99984.88;4932205;28;105968;-67
2021/10/20 05:41:12;;;;;;;8.57;6.57;;;;;;;11.62;75.71;99980.38;4931249;28;106160;-69
2021/10/20 05:43:37;;;;;;;10.73;6.22;;;;;;;11.62;75.92;99975.03;4931072;28;106018;-69
2021/10/20 05:46:03;;;;;;;10.27;6.60;;;;;;;11.64;75.54;99978.31;4931152;28;106015;-68
2021/10/20 05:48:28;;;;;;;8.02;6.97;;;;;;;11.65;75.73;99972.00;4931128;28;106072;-70
2021/10/20 05:50:53;;;;;;;9.82;6.63;;;;;;;11.67;75.86;99971.81;4931253;28;106407;-68
2021/10/20 05:53:19;;;;;;;10.82;6.75;;;;;;;11.69;75.92;99975.13;4930821;28;106564;-66
2021/10/20 05:55:45;;;;;;;9.10;6.25;;;;;;;11.71;75.64;99966.94;4931214;28;105778;-65
2021/10/20 05:58:11;;;;;;;9.77;6.18;;;;;;;11.74;76.19;99970.09;4932009;28;106063;-67
2021/10/20 06:00:38;;;;;;;8.90;6.18;;;;;;;11.77;75.69;99967.03;4931013;28;106148;-66
2021/10/20 06:03:04;;;;;;;10.40;6.15;;;;;;;11.78;75.54;99968.69;4930758;28;105817;-65
2021/10/20 06:05:29;;;;;;;10.70;6.70;;;;;;;11.83;75.63;99971.63;4930822;28;105891;-66
2021/10/20 06:07:56;;;;;;;11.25;7.53;;;;;;;11.86;75.72;99965.09;4931765;28;105943;-67
2021/10/20 06:10:22;;;;;;;13.38;7.40;;;;;;;11.91;75.58;99967.22;4931378;28;106217;-64
2021/10/20 06:12:47;;;;;;;8.63;6.90;;;;;;;11.95;75.64;99968.56;4929859;28;106592;-67
2021/10/20 06:15:13;;;;;;;10.45;6.90;;;;;;;12.01;75.55;99967.78;4930338;28;105964;-68
2021/10/20 06:17:39;;;;;;;9.57;7.03;;;;;;;12.07;75.52;99956.38;4931405;28;106217;-65
2021/10/20 06:20:06;;;;;;;13.13;6.68;;;;;;;12.14;75.40;99956.47;4931219;28;105946;-69
2021/10/20 06:22:32;;;;;;;11.68;6.38;;;;;;;12.20;75.80;99955.72;4930430;28;105931;-71
2021/10/20 06:24:58;;;;;;;9.38;5.80;;;;;;;12.27;75.24;99953.13;4930683;28;105896;-69
2021/10/20 06:27:23;;;;;;;8.23;5.28;;;;;;;12.32;75.26;99953.41;4931435;28;105987;-69
2021/10/20 06:29:49;;;;;;;10.40;7.00;;;;;;;12.39;75.58;99956.97;4930751;28;106677;-70
2021/10/20 06:32:14;;;;;;;6.88;4.70;;;;;;;12.46;74.88;99960.53;4931504;28;106815;-66
2021/10/20 06:34:39;;;;;;;8.25;4.75;;;;;;;12.56;75.06;99959.41;4929833;28;115631;-67
2021/10/20 06:37:05;;;;;;;6.15;3.67;;;;;;;12.67;75.27;99956.22;4931536;28;105890;-65
2021/10/20 06:39:31;;;;;;;6.05;3.22;;;;;;;12.79;75.16;99954.72;4930810;28;106144;-69
2021/10/20 06:41:57;;;;;;;7.40;3.35;;;;;;;12.94;75.09;99954.66;4929734;28;106295;-71
2021/10/20 06:44:22;;;;;;;5.10;3.40;;;;;;;13.09;74.83;99965.28;4929401;28;105896;-70
2021/10/20 06:46:48;;;;;;;7.97;3.28;;;;;;;13.25;74.55;99958.03;4911946;28;105871;-68
2021/10/20 06:49:14;;;;;;;7.65;3.05;;;;;;;13.41;74.48;99952.41;4910446;28;106240;-67
2021/10/20 06:51:40;;;;;;;4.72;3.45;;;;;;;13.56;74.20;99959.50;4911188;28;106589;-68
2021/10/20 06:54:06;;;;;;;4.50;2.75;;;;;;;13.72;73.63;99961.88;4910864;28;106456;-66
2021/10/20 06:56:31;;;;;;;6.65;2.90;;;;;;;13.88;73.20;99948.16;4911712;28;105776;-67
2021/10/20 06:58:57;;;;;;;7.30;2.85;;;;;;;14.07;73.02;99950.34;4911264;28;106241;-67
2021/10/20 07:01:22;;;;;;;7.38;2.97;;;;;;;14.21;72.63;99942.16;4910447;28;106401;-67
2021/10/20 07:03:47;;;;;;;4.25;2.75;;;;;;;14.38;72.16;99942.63;4910613;28;106035;-68
2021/10/20 07:06:13;;;;;;;5.80;2.90;;;;;;;14.56;71.77;99943.91;4911450;28;105922;-68
2021/10/20 07:08:38;;;;;;;7.43;2.85;;;;;;;14.73;71.46;99936.34;4909437;28;106344;-73
2021/10/20 07:11:04;;;;;;;5.93;2.65;;;;;;;14.89;71.13;99933.25;4910417;28;106760;-68
2021/10/20 07:13:29;;;;;;;3.90;2.60;;;;;;;15.07;70.27;99937.19;4910292;28;106026;-69
2021/10/20 07:15:57;;;;;;;9.75;2.70;;;;;;;15.21;69.82;99936.19;4925800;28;105961;-68
2021/10/20 07:18:23;;;;;;;5.45;2.83;;;;;;;15.40;69.75;99929.16;4910219;28;105923;-68
2021/10/20 07:20:48;;;;;;;5.35;2.85;;;;;;;15.63;69.17;99935.09;4910407;28;105921;-69
2021/10/20 07:23:13;;;;;;;6.65;2.80;;;;;;;15.86;69.01;99929.28;4909842;28;106207;-69
2021/10/20 07:25:39;;;;;;;5.28;2.97;;;;;;;16.07;67.96;99928.16;4911525;28;106098;-71
2021/10/20 07:28:04;;;;;;;13.63;6.75;;;;;;;16.26;67.64;99931.00;4910759;28;106223;-73
2021/10/20 07:30:30;;;;;;;11.60;5.53;;;;;;;16.45;67.47;99930.06;4919730;28;107153;-73
2021/10/20 07:32:56;;;;;;;13.60;6.72;;;;;;;16.74;67.18;99936.72;4928981;28;106074;-69
2021/10/20 07:35:21;;;;;;;8.38;5.18;;;;;;;17.02;66.25;99934.69;4929538;28;106173;-68
2021/10/20 07:37:47;;;;;;;7.82;3.42;;;;;;;17.15;64.84;99942.63;4929106;28;105813;-69
2021/10/20 07:40:14;;;;;;;8.27;3.03;;;;;;;17.19;64.13;99926.88;4928751;28;105867;-69
2021/10/20 07:42:42;;;;;;;7.78;2.83;;;;;;;17.30;63.95;99920.78;4928876;28;106099;-71
2021/10/20 07:45:10;;;;;;;5.60;2.50;;;;;;;17.46;63.57;99924.78;4929649;28;106361;-65
2021/10/20 07:47:36;;;;;;;3.15;1.95;;;;;;;17.63;62.84;99925.00;4929162;28;106265;-69
2021/10/20 07:50:04;;;;;;;8.05;3.53;;;;;;;17.78;62.60;99927.34;4929284;28;105742;-71
2021/10/20 07:52:29;;;;;;;8.07;3.70;;;;;;;17.92;61.44;99930.75;4927102;28;106466;-70
2021/10/20 07:54:55;;;;;;;7.45;3.20;;;;;;;18.07;61.46;99917.72;4929986;28;106529;-69
2021/10/20 07:57:21;;;;;;;7.32;3.75;;;;;;;18.22;60.36;99922.72;4928462;28;106250;-70
2021/10/20 07:59:47;;;;;;;4.38;2.55;;;;;;;18.48;59.69;99912.63;4929160;28;106004;-70
2021/10/20 08:02:13;;;;;;;5.75;3.08;;;;;;;18.78;59.23;99909.03;4928943;28;106058;-69
2021/10/20 08:04:38;;;;;;;5.78;3.70;;;;;;;19.22;58.59;99912.31;4929609;28;106167;-71
2021/10/20 08:07:04;;;;;;;7.55;3.45;;;;;;;19.76;57.65;99911.34;4929231;28;106015;-72
2021/10/20 08:09:29;;;;;;;7.32;3.33;;;;;;;20.31;56.28;99910.03;4928927;28;106324;-71
2021/10/20 08:11:54;;;;;;;4.35;2.80;;;;;;;20.74;55.02;99905.16;4928767;28;108358;-70
2021/10/20 08:14:20;;;;;;;7.50;3.13;;;;;;;20.72;53.01;99900.00;4928908;28;106138;-71
2021/10/20 08:16:45;;;;;;;5.80;2.60;;;;;;;20.87;52.76;99904.00;4937119;28;106182;-68
2021/10/20 08:19:11;;;;;;;5.88;2.60;;;;;;;21.08;52.25;99910.59;4948156;28;106017;-72
2021/10/20 08:21:36;;;;;;;4.30;2.63;;;;;;;20.75;51.22;99896.78;4948433;28;105811;-71
2021/10/20 08:24:01;;;;;;;5.53;2.50;;;;;;;20.73;51.54;99889.97;4948477;28;106158;-70
2021/10/20 08:26:27;;;;;;;7.28;2.40;;;;;;;20.82;51.14;99882.25;4948105;28;106360;-69
2021/10/20 08:28:52;;;;;;;3.80;2.40;;;;;;;21.05;50.83;99892.09;4947632;28;106036;-70
2021/10/20 08:31:17;;;;;;;6.85;2.38;;;;;;;21.02;49.74;99885.28;4947739;28;106305;-67
2021/10/20 08:33:43;;;;;;;4.22;2.35;;;;;;;21.19;49.35;99879.88;4948662;28;106331;-67
2021/10/20 08:36:08;;;;;;;6.95;2.38;;;;;;;21.44;49.14;99876.69;4950926;28;106304;-69
2021/10/20 08:38:34;;;;;;;5.95;2.72;;;;;;;21.80;48.47;99870.94;4951104;28;105949;-71
2021/10/20 08:41:01;;;;;;;5.18;3.22;;;;;;;21.92;46.79;99862.69;4950913;28;106004;-70
2021/10/20 08:43:26;;;;;;;6.13;2.70;;;;;;;21.91;46.39;99858.34;4951447;28;106118;-71
2021/10/20 08:45:52;;;;;;;7.63;3.38;;;;;;;21.80;46.18;99860.09;4950854;28;106100;-70
2021/10/20 08:48:19;;;;;;;8.32;3.42;;;;;;;21.90;46.09;99862.94;4950544;28;106212;-68
2021/10/20 08:50:50;;;;;;;6.82;2.95;;;;;;;22.00;45.77;99861.44;4950581;28;105990;-68
2021/10/20 08:53:16;;;;;;;7.13;3.55;;;;;;;22.31;44.89;99855.25;4951679;28;106898;-68
2021/10/20 08:55:42;;;;;;;5.00;2.70;;;;;;;22.79;44.05;99860.03;4951037;28;106240;-69
2021/10/20 08:58:07;;;;;;;7.35;3.30;;;;;;;23.37;43.48;99843.06;4950938;28;106488;-69
2021/10/20 09:00:32;;;;;;;6.07;2.70;;;;;;;23.69;42.15;99844.81;4950553;28;106137;-69
2021/10/20 09:02:58;;;;;;;12.43;6.03;;;;;;;24.08;41.26;99847.16;4951887;28;106233;-68
2021/10/20 09:05:26;;;;;;;11.43;6.40;;;;;;;24.27;40.20;99826.50;4951014;28;106259;-68
2021/10/20 09:07:54;;;;;;;11.40;5.90;;;;;;;24.79;39.86;99829.28;4950592;28;106282;-68
2021/10/20 09:10:23;;;;;;;8.65;4.28;;;;;;;24.99;37.48;99834.69;4950599;28;105965;-68
2021/10/20 09:12:48;;;;;;;10.80;5.78;;;;;;;24.87;37.60;99825.19;4951236;28;105865;-68
2021/10/20 09:15:19;;;;;;;9.18;4.68;;;;;;;24.67;37.13;99826.81;4950304;28;106264;-67
2021/10/20 09:17:44;;;;;;;8.00;3.60;;;;;;;24.44;37.26;99823.53;4950548;28;106240;-66
2021/10/20 09:20:25;;;;;;;6.38;3.38;;;;;;;24.74;36.19;99832.00;4950391;28;106243;-67
2021/10/20 09:22:55;;;;;;;4.32;2.40;;;;;;;25.15;36.13;99829.22;4951127;28;106098;-69
2021/10/20 09:25:21;;;;;;;6.32;3.30;;;;;;;26.25;35.05;99809.41;4949435;28;106344;-69
2021/10/20 09:27:47;;;;;;;3.15;1.90;;;;;;;26.82;32.83;99804.31;4950419;28;106078;-69
2021/10/20 09:30:14;;;;;;;10.02;2.72;;;;;;;26.47;33.45;99807.03;4950590;28;106430;-69
2021/10/20 09:32:41;;;;;;;7.50;2.22;;;;;;;25.95;33.06;99822.91;4950752;28;106187;-70
2021/10/20 09:35:10;;;;;;;3.08;1.60;;;;;;;25.76;33.63;99814.56;4950720;28;106207;-70
2021/10/20 09:37:38;;;;;;;5.30;2.00;;;;;;;27.02;32.26;99811.47;4950801;28;106771;-70
2021/10/20 09:40:08;;;;;;;4.28;1.77;;;;;;;27.95;30.84;99800.22;4949961;28;105951;-72
2021/10/20 09:42:48;;;;;;;4.03;1.60;;;;;;;28.96;28.41;99806.28;4950519;28;106129;-69
2021/10/20 09:45:15;;;;;;;4.00;1.52;;;;;;;29.70;28.54;99799.06;4950116;28;106240;-69
2021/10/20 09:47:41;;;;;;;3.33;1.80;;;;;;;31.71;25.95;99800.28;4950049;28;105800;-71
2021/10/20 09:50:08;;;;;;;6.57;1.83;;;;;;;33.03;23.48;99789.91;4950408;28;105796;-71
2021/10/20 09:53:03;;;;;;;3.45;1.35;;;;;;;32.85;23.46;99800.22;4951117;28;105953;-70
2021/10/20 09:55:33;;;;;;;2.40;1.15;;;;;;;32.75;23.72;99786.78;4949548;28;106369;-67
2021/10/20 09:58:03;;;;;;;6.40;1.75;;;;;;;34.31;22.72;99799.19;4950088;28;106272;-65
2021/10/20 10:00:29;;;;;;;3.65;1.73;;;;;;;36.30;20.17;99782.16;4950322;28;106564;-65
2021/10/20 10:02:57;;;;;;;3.67;1.63;;;;;;;37.76;19.23;99794.50;4951059;28;105906;-66
2021/10/20 10:05:22;;;;;;;4.15;1.65;;;;;;;37.60;18.44;99810.38;4949966;28;106605;-66
2021/10/20 10:07:48;;;;;;;3.70;1.77;;;;;;;37.88;18.14;99792.75;4950278;28;106564;-66
2021/10/20 10:10:13;;;;;;;4.80;1.55;;;;;;;38.30;17.42;99792.00;4949872;28;105922;-67
2021/10/20 10:12:40;;;;;;;5.00;1.75;;;;;;;38.20;16.90;99798.16;4950416;28;106009;-67
2021/10/20 10:15:17;;;;;;;2.83;1.70;;;;;;;39.84;16.44;99781.75;4949850;28;106143;-67
2021/10/20 10:17:44;;;;;;;4.07;1.63;;;;;;;39.99;16.25;99793.88;4950232;28;105831;-66
2021/10/20 10:20:13;;;;;;;2.47;1.40;;;;;;;38.78;16.04;99776.97;4949601;28;106761;-67
2021/10/20 10:22:55;;;;;;;3.67;1.60;;;;;;;38.25;16.70;99773.66;4950804;28;105855;-66
2021/10/20 10:25:32;;;;;;;3.42;1.60;;;;;;;38.88;15.98;99773.59;4950145;28;106548;-66
2021/10/20 10:28:08;;;;;;;2.58;1.40;;;;;;;39.35;15.85;99758.38;4949201;28;106044;-67
2021/10/20 10:30:51;;;;;;;6.95;1.77;;;;;;;41.07;14.46;99755.09;4948896;28;106117;-69
2021/10/20 10:33:18;;;;;;;3.78;1.50;;;;;;;41.75;14.10;99741.47;4949702;28;106071;-68
2021/10/20 10:35:43;;;;;;;4.00;1.25;;;;;;;42.41;13.11;99743.25;4949684;28;106129;-68
2021/10/20 10:38:08;;;;;;;3.10;1.40;;;;;;;41.85;13.31;99747.53;4949646;28;106065;-70
2021/10/20 10:40:34;;;;;;;2.20;1.27;;;;;;;41.48;13.72;99740.97;4949136;28;106056;-68
2021/10/20 10:43:10;;;;;;;6.63;1.52;;;;;;;42.21;13.17;99742.88;4950070;28;105985;-68
2021/10/20 10:45:37;;;;;;;2.83;1.33;;;;;;;42.38;13.04;99730.06;4949869;28;106177;-68
2021/10/20 10:48:07;;;;;;;4.00;1.95;;;;;;;41.77;12.98;99727.88;4949143;28;106261;-71
2021/10/20 10:50:48;;;;;;;3.60;1.40;;;;;;;41.17;12.94;99726.41;4949134;28;106273;-70
2021/10/20 10:53:34;;;;;;;2.30;1.48;;;;;;;41.66;13.06;99701.91;4950265;28;105883;-69
2021/10/20 10:56:06;;;;;;;3.78;1.50;;;;;;;42.71;12.72;99697.28;4949109;28;106215;-73
2021/10/20 10:58:52;;;;;;;12.52;9.88;;;;;;;42.96;12.07;99707.66;4948315;28;106173;-71
2021/10/20 11:01:48;;;;;;;9.02;5.65;;;;;;;42.26;12.75;99688.50;4948882;28;106253;-70
2021/10/20 11:04:25;;;;;;;8.35;5.57;;;;;;;43.00;12.33;99686.03;4949003;28;106057;-71
2021/10/20 11:06:55;;;;;;;5.28;2.22;;;;;;;42.23;12.05;99675.31;4949146;28;105894;-70
2021/10/20 11:09:30;;;;;;;8.48;3.15;;;;;;;40.14;13.74;99676.94;4948657;28;105985;-68
2021/10/20 11:11:55;;;;;;;4.05;2.70;;;;;;;39.11;14.49;99664.94;4949037;28;106011;-69
2021/10/20 11:14:23;;;;;;;3.03;1.90;;;;;;;38.91;15.23;99650.34;4949587;28;105927;-68
2021/10/20 11:16:55;;;;;;;5.45;1.77;;;;;;;38.75;15.55;99661.63;4948789;28;105962;-67
2021/10/20 11:19:21;;;;;;;3.00;1.75;;;;;;;37.15;16.79;99651.47;4948540;28;105995;-71
2021/10/20 11:21:47;;;;;;;2.40;1.50;;;;;;;38.46;16.12;99641.69;4948559;28;105926;-71
2021/10/20 11:24:14;;;;;;;3.40;1.88;;;;;;;39.84;14.70;99636.00;4949470;28;106183;-71
2021/10/20 11:26:40;;;;;;;5.63;2.05;;;;;;;41.08;13.94;99623.41;4948707;28;106148;-71
2021/10/20 11:29:08;;;;;;;4.28;2.08;;;;;;;41.37;13.55;99623.53;4948749;28;106594;-71
2021/10/20 11:31:38;;;;;;;3.10;1.63;;;;;;;40.83;13.72;99616.88;4948525;28;106462;-70
2021/10/20 11:34:18;;;;;;;4.25;1.92;;;;;;;41.22;13.80;99617.06;4949461;28;106296;-71
2021/10/20 11:36:45;;;;;;;3.80;1.52;;;;;;;42.15;12.92;99614.94;4948713;28;106211;-70
2021/10/20 11:39:10;;;;;;;3.25;2.25;;;;;;;42.50;12.37;99613.31;4948552;28;105953;-67
2021/10/20 11:41:38;;;;;;;3.03;1.92;;;;;;;41.93;13.12;99612.13;4948716;28;105880;-67
2021/10/20 11:44:04;;;;;;;3.90;1.73;;;;;;;39.77;14.36;99606.84;4949467;28;106558;-68
2021/10/20 11:46:33;;;;;;;7.97;3.25;;;;;;;36.35;16.46;99596.13;4948704;28;107414;-67
2021/10/20 11:49:00;;;;;;;3.35;1.90;;;;;;;33.92;18.84;99599.63;4946867;28;106424;-70
2021/10/20 11:51:26;;;;;;;3.67;2.40;;;;;;;32.10;21.02;99596.59;4947918;28;106099;-68
2021/10/20 11:53:51;;;;;;;10.52;3.88;;;;;;;30.85;22.27;99593.44;4948669;28;105950;-67
2021/10/20 11:56:17;;;;;;;9.50;2.92;;;;;;;30.44;22.87;99586.38;4948535;28;106402;-67
2021/10/20 11:58:43;;;;;;;7.55;3.85;;;;;;;30.76;23.11;99578.06;4947725;28;106336;-67
2021/10/20 12:01:09;;;;;;;7.10;3.92;;;;;;;31.39;22.24;99571.13;4948463;28;105800;-67
2021/10/20 12:03:39;;;;;;;8.68;4.70;;;;;;;31.96;21.49;99568.44;4949425;28;106332;-67
2021/10/20 12:06:10;;;;;;;10.93;5.40;;;;;;;31.94;21.39;99565.22;4948575;28;106313;-67
2021/10/20 12:08:36;;;;;;;11.90;8.13;;;;;;;32.05;21.78;99561.78;4948207;28;106963;-67
2021/10/20 12:11:03;;;;;;;5.57;3.40;;;;;;;31.27;21.96;99565.47;4950715;28;106049;-67
2021/10/20 12:13:28;;;;;;;4.03;2.85;;;;;;;30.15;22.96;99564.91;4951891;28;106144;-68
2021/10/20 12:15:56;;;;;;;4.20;2.53;;;;;;;29.58;24.08;99566.34;4952008;28;106006;-72
2021/10/20 12:18:24;;;;;;;6.28;2.33;;;;;;;29.27;24.55;99560.81;4959722;28;106305;-67
2021/10/20 12:20:54;;;;;;;3.40;1.85;;;;;;;29.61;23.99;99559.41;4970066;28;105944;-68
2021/10/20 12:23:19;;;;;;;3.75;1.95;;;;;;;29.86;23.80;99552.50;4969879;28;106299;-68
2021/10/20 12:25:46;;;;;;;7.88;3.17;;;;;;;30.05;23.99;99555.81;4970554;28;106373;-68
2021/10/20 12:28:12;;;;;;;5.05;2.97;;;;;;;29.34;24.16;99548.25;4971555;28;106067;-69
2021/10/20 12:30:38;;;;;;;5.75;2.50;;;;;;;27.89;25.52;99559.75;4969361;28;106765;-71
2021/10/20 12:33:09;;;;;;;4.20;2.42;;;;;;;26.78;27.52;99549.16;4971425;28;106129;-71
2021/10/20 12:35:35;;;;;;;6.05;2.67;;;;;;;26.17;28.46;99529.66;4968387;28;106237;-68
2021/10/20 12:38:03;;;;;;;5.65;3.45;;;;;;;25.65;29.42;99530.13;4953422;28;106668;-70
2021/10/20 12:40:30;;;;;;;9.02;3.10;;;;;;;25.25;30.15;99521.19;4948552;28;106354;-70
2021/10/20 12:43:03;;;;;;;7.63;3.05;;;;;;;24.88;30.87;99516.25;4949679;28;106410;-67
2021/10/20 12:45:31;;;;;;;5.20;2.80;;;;;;;24.62;31.45;99500.88;4949659;28;106343;-68
2021/10/20 12:47:59;;;;;;;4.00;2.70;;;;;;;24.35;32.46;99508.63;4948898;28;107338;-68
2021/10/20 12:50:27;;;;;;;8.52;3.65;;;;;;;25.00;32.11;99498.47;4950462;28;106080;-71
2021/10/20 12:52:53;;;;;;;8.63;3.25;;;;;;;25.84;30.74;99494.78;4951778;28;105897;-73
2021/10/20 12:55:22;;;;;;;6.13;3.75;;;;;;;25.85;30.63;99492.88;4951408;28;106000;-69
2021/10/20 12:57:50;;;;;;;10.00;3.33;;;;;;;25.68;30.90;99499.59;4951107;28;105976;-73
